Poplar Arrow — C6TQ3 — position and weather

sailwx.info

Track history (hours):
 
Tides and Currents Weather Stations Pressure Air Temp Water Temp Dewpoint Dewpoint Depression Visibility Wind Speed Wind Dir Waves Ship Positions

Poplar Arrow

Last reported at 2014-Sep-29 23:00 UTC. Time now 2014-Oct-02 14:31 UTC.
Position S 19°48' W 040°00'.

Length 190 m; draft 9.7 m.

Type: Cargo ship. MMSI: 311744000.

Wind from 020 at 17 knots

Waves 0.5 meters (2 feet), 3 second period

Barometer 1017.8 mb
Air temperature 25.0 ° C
Visibility: greater than 5.4 NM
Dewpoint 22.3 ° C
Water temperature 23.2 ° C

Date/timePositionNaut miles runAvg speedWind from/ knotsBaromVisibWave heightAir tempDewpointWater temp
2014-Sep-29 23:00S 19°48' W 040°00'42 1.7 020 / 171017.8 5.4 0.525.022.323.2
2014-Sep-28 23:00S 20°30' W 040°00'26110.9 040 / 221017.8 5.4 0.524.021.322.0
2014-Sep-27 23:00S 23°36' W 043°18'16812.2 270 / 71018.0 2.2 21.520.721.0
2014-Sep-27 09:16S 24°19' W 046°16'911.3
2014-Sep-27 08:28S 24°12' W 046°21'1010.7
2014-Sep-27 07:33S 24°02' W 046°21'6 5.8
2014-Sep-27 06:33S 23°57' W 046°19'0 0.4
2014-Sep-27 05:33S 23°56' W 046°19'0 0.0
2014-Sep-27 04:33S 23°56' W 046°19'0 0.0
2014-Sep-27 03:33S 23°56' W 046°19'0 0.0
2014-Sep-27 02:33S 23°56' W 046°19'0 0.0
2014-Sep-27 01:33S 23°56' W 046°19'0 0.0
2014-Sep-27 00:33S 23°56' W 046°19'0 0.0
2014-Sep-26 23:33S 23°56' W 046°19'0 0.0
2014-Sep-26 22:33S 23°56' W 046°19'0 0.0
2014-Sep-26 21:33S 23°56' W 046°19'0 0.0
2014-Sep-26 20:33S 23°56' W 046°19'0 0.0
2014-Sep-26 14:33S 23°56' W 046°19'0 0.0
2014-Sep-26 13:33S 23°56' W 046°19'0 0.0
2014-Sep-26 12:33S 23°56' W 046°19'0 0.0
2014-Sep-26 11:34S 23°56' W 046°19'0 0.0
2014-Sep-26 10:33S 23°56' W 046°19'0 0.0
2014-Sep-26 09:33S 23°56' W 046°19'0 0.0
2014-Sep-26 08:33S 23°56' W 046°19'0 0.0
2014-Sep-26 07:33S 23°56' W 046°19'0 0.0
2014-Sep-26 06:33S 23°56' W 046°19'0 0.0
2014-Sep-26 05:33S 23°56' W 046°19'0 0.0
2014-Sep-26 04:33S 23°56' W 046°19'0 0.1
2014-Sep-26 03:33S 23°56' W 046°19'0 0.0
2014-Sep-26 02:33S 23°56' W 046°19'0 0.0
2014-Sep-26 01:33S 23°56' W 046°19'0 0.0
2014-Sep-26 00:34S 23°56' W 046°19'0 0.0
2014-Sep-25 23:33S 23°56' W 046°19'0 0.0
2014-Sep-25 22:33S 23°56' W 046°19'0 0.0
2014-Sep-25 21:34S 23°56' W 046°19'0 0.0
2014-Sep-25 20:33S 23°56' W 046°19'0 0.0
2014-Sep-25 19:33S 23°56' W 046°19'0 0.0
2014-Sep-25 18:33S 23°56' W 046°19'0 0.0
2014-Sep-25 17:33S 23°56' W 046°19'0 0.0
2014-Sep-25 16:33S 23°56' W 046°19'0 0.1
2014-Sep-25 15:33S 23°56' W 046°19'0 0.0
2014-Sep-25 14:33S 23°56' W 046°19'0 0.0
2014-Sep-25 13:33S 23°56' W 046°19'0 0.0
2014-Sep-25 12:33S 23°56' W 046°19'0 0.0
2014-Sep-25 11:33S 23°56' W 046°19'0 0.0
2014-Sep-25 10:34S 23°56' W 046°19'0 0.0
2014-Sep-25 09:34S 23°56' W 046°19'0 0.0
2014-Sep-25 08:34S 23°56' W 046°19'0 0.0
2014-Sep-25 07:33S 23°56' W 046°19'0 0.0
2014-Sep-25 06:33S 23°56' W 046°19'0 0.0
2014-Sep-25 05:33S 23°56' W 046°19'3 3.3
2014-Sep-25 04:34S 23°59' W 046°18'1 0.1
2014-Sep-24 23:00S 24°00' W 046°18'5 1.5 260 / 81017.5 5.4 23.120.222.2
2014-Sep-24 19:30S 24°05' W 046°20'4 4.2
2014-Sep-24 18:33S 24°07' W 046°24'47010.8
2014-Sep-22 23:00S 31°06' W 050°24'   050 / 301017.4 5.4 0.518.014.618.3
Track history (hours):
 
Tides and Currents Weather Stations Pressure Air Temp Water Temp Dewpoint Dewpoint Depression Visibility Wind Speed Wind Dir Waves Ship Positions

Poplar Arrow

Last reported at 2014-Sep-29 23:00 UTC. Time now 2014-Oct-02 14:31 UTC.
Position S 19°48' W 040°00'.

Length 190 m; draft 9.7 m.

Type: Cargo ship. MMSI: 311744000.

Wind from 020 at 17 knots

Waves 0.5 meters (2 feet), 3 second period

Barometer 1017.8 mb
Air temperature 25.0 ° C
Visibility: greater than 5.4 NM
Dewpoint 22.3 ° C
Water temperature 23.2 ° C

Date/timePositionNaut miles runAvg speedWind from/ knotsBaromVisibWave heightAir tempDewpointWater temp
2014-Sep-29 23:00S 19°48' W 040°00'42 1.7 020 / 171017.8 5.4 0.525.022.323.2
2014-Sep-28 23:00S 20°30' W 040°00'26110.9 040 / 221017.8 5.4 0.524.021.322.0
2014-Sep-27 23:00S 23°36' W 043°18'16812.2 270 / 71018.0 2.2 21.520.721.0
2014-Sep-27 09:16S 24°19' W 046°16'911.3
2014-Sep-27 08:28S 24°12' W 046°21'1010.7
2014-Sep-27 07:33S 24°02' W 046°21'6 5.8
2014-Sep-27 06:33S 23°57' W 046°19'0 0.4
2014-Sep-27 05:33S 23°56' W 046°19'0 0.0
2014-Sep-27 04:33S 23°56' W 046°19'0 0.0
2014-Sep-27 03:33S 23°56' W 046°19'0 0.0
2014-Sep-27 02:33S 23°56' W 046°19'0 0.0
2014-Sep-27 01:33S 23°56' W 046°19'0 0.0
2014-Sep-27 00:33S 23°56' W 046°19'0 0.0
2014-Sep-26 23:33S 23°56' W 046°19'0 0.0
2014-Sep-26 22:33S 23°56' W 046°19'0 0.0
2014-Sep-26 21:33S 23°56' W 046°19'0 0.0
2014-Sep-26 20:33S 23°56' W 046°19'0 0.0
2014-Sep-26 14:33S 23°56' W 046°19'0 0.0
2014-Sep-26 13:33S 23°56' W 046°19'0 0.0
2014-Sep-26 12:33S 23°56' W 046°19'0 0.0
2014-Sep-26 11:34S 23°56' W 046°19'0 0.0
2014-Sep-26 10:33S 23°56' W 046°19'0 0.0
2014-Sep-26 09:33S 23°56' W 046°19'0 0.0
2014-Sep-26 08:33S 23°56' W 046°19'0 0.0
2014-Sep-26 07:33S 23°56' W 046°19'0 0.0
2014-Sep-26 06:33S 23°56' W 046°19'0 0.0
2014-Sep-26 05:33S 23°56' W 046°19'0 0.0
2014-Sep-26 04:33S 23°56' W 046°19'0 0.1
2014-Sep-26 03:33S 23°56' W 046°19'0 0.0
2014-Sep-26 02:33S 23°56' W 046°19'0 0.0
2014-Sep-26 01:33S 23°56' W 046°19'0 0.0
2014-Sep-26 00:34S 23°56' W 046°19'0 0.0
2014-Sep-25 23:33S 23°56' W 046°19'0 0.0
2014-Sep-25 22:33S 23°56' W 046°19'0 0.0
2014-Sep-25 21:34S 23°56' W 046°19'0 0.0
2014-Sep-25 20:33S 23°56' W 046°19'0 0.0
2014-Sep-25 19:33S 23°56' W 046°19'0 0.0
2014-Sep-25 18:33S 23°56' W 046°19'0 0.0
2014-Sep-25 17:33S 23°56' W 046°19'0 0.0
2014-Sep-25 16:33S 23°56' W 046°19'0 0.1
2014-Sep-25 15:33S 23°56' W 046°19'0 0.0
2014-Sep-25 14:33S 23°56' W 046°19'0 0.0
2014-Sep-25 13:33S 23°56' W 046°19'0 0.0
2014-Sep-25 12:33S 23°56' W 046°19'0 0.0
2014-Sep-25 11:33S 23°56' W 046°19'0 0.0
2014-Sep-25 10:34S 23°56' W 046°19'0 0.0
2014-Sep-25 09:34S 23°56' W 046°19'0 0.0
2014-Sep-25 08:34S 23°56' W 046°19'0 0.0
2014-Sep-25 07:33S 23°56' W 046°19'0 0.0
2014-Sep-25 06:33S 23°56' W 046°19'0 0.0
2014-Sep-25 05:33S 23°56' W 046°19'3 3.3
2014-Sep-25 04:34S 23°59' W 046°18'1 0.1
2014-Sep-24 23:00S 24°00' W 046°18'5 1.5 260 / 81017.5 5.4 23.120.222.2
2014-Sep-24 19:30S 24°05' W 046°20'4 4.2
2014-Sep-24 18:33S 24°07' W 046°24'47010.8
2014-Sep-22 23:00S 31°06' W 050°24'   050 / 301017.4 5.4 0.518.014.618.3

Dump ship's entire track history